Time;durP1;ratioP1;P1;durP2;ratioP2;P2;SDS_P1;SDS_P2;PMS_P1;PMS_P2;Temp;Humidity;BMP_temperature;BMP_pressure;BME280_temperature;BME280_humidity;BME280_pressure;Samples;Min_cycle;Max_cycle;Signal;HPM_P1;HPM_P2
2023/10/10 00:00:49;;;;;;;;;68.50;57.25;;;;;17.15;46.37;99750.56;5076293;27;9770;-78
2023/10/10 00:03:33;;;;;;;;;73.75;64.75;;;;;17.17;46.28;99753.16;5115025;27;9747;-79
2023/10/10 00:06:08;;;;;;;;;73.50;65.75;;;;;17.17;46.71;99747.84;5068410;28;9841;-77
2023/10/10 00:08:40;;;;;;;;;74.75;65.50;;;;;17.19;46.59;99745.97;5068114;28;10032;-78
2023/10/10 00:11:14;;;;;;;;;54.50;44.00;;;;;17.22;46.48;99743.19;5068431;28;10093;-79
2023/10/10 00:13:46;;;;;;;;;74.75;65.50;;;;;17.17;47.00;99746.06;5037416;28;10853;-79
2023/10/10 00:16:23;;;;;;;;;75.00;67.50;;;;;17.11;46.95;99754.28;5088321;28;10106;-82
2023/10/10 00:18:55;;;;;;;;;75.75;65.00;;;;;17.13;47.08;99752.44;5088172;28;10264;-80
2023/10/10 00:21:24;;;;;;;;;75.25;65.75;;;;;17.07;47.40;99742.09;5087917;28;10222;-81
2023/10/10 00:23:55;;;;;;;;;71.50;60.75;;;;;17.04;47.55;99752.88;5087864;28;10227;-78
2023/10/10 00:26:26;;;;;;;;;74.25;66.00;;;;;16.95;48.43;99756.78;5087030;28;9933;-80
2023/10/10 00:28:55;;;;;;;;;73.50;63.75;;;;;16.97;48.19;99748.75;5088394;28;10008;-80
2023/10/10 00:31:26;;;;;;;;;74.25;64.75;;;;;16.87;48.79;99735.03;5071559;28;9835;-83
2023/10/10 00:33:56;;;;;;;;;69.50;58.75;;;;;16.78;49.12;99746.91;5071506;28;9844;-79
2023/10/10 00:36:31;;;;;;;;;75.25;69.00;;;;;16.72;49.25;99744.53;5044129;27;9916;-80
2023/10/10 00:39:07;;;;;;;;;76.00;67.50;;;;;16.71;49.22;99745.44;5112238;27;10097;-80
2023/10/10 00:41:44;;;;;;;;;74.50;66.75;;;;;16.70;49.38;99738.41;5129788;27;10116;-82
2023/10/10 00:44:15;;;;;;;;;76.75;67.25;;;;;16.67;49.39;99727.91;5130137;27;10180;-79
2023/10/10 00:46:51;;;;;;;;;75.00;68.00;;;;;16.68;49.40;99728.78;5131149;27;10245;-82
2023/10/10 00:49:23;;;;;;;;;78.00;73.75;;;;;16.65;49.55;99729.78;5131700;27;10410;-79
2023/10/10 00:51:54;;;;;;;;;76.75;70.75;;;;;16.63;49.24;99723.69;5124431;27;10514;-82
2023/10/10 00:54:32;;;;;;;;;80.50;75.00;;;;;16.70;49.45;99733.09;5092265;28;10436;-77
2023/10/10 00:57:08;;;;;;;;;79.25;75.75;;;;;16.77;48.92;99734.53;5104090;27;10799;-78
2023/10/10 00:59:42;;;;;;;;;76.50;70.75;;;;;16.73;49.10;99732.94;5114180;27;10647;-81
2023/10/10 01:02:12;;;;;;;;;80.00;77.00;;;;;16.76;48.98;99730.19;5133636;27;10808;-78
2023/10/10 01:04:55;;;;;;;;;77.50;74.50;;;;;16.79;48.85;99732.69;5080682;27;10568;-77
2023/10/10 01:07:25;;;;;;;;;78.25;74.25;;;;;16.78;49.01;99730.13;5123882;27;10635;-79
2023/10/10 01:09:57;;;;;;;;;76.50;71.00;;;;;16.75;49.14;99727.59;5049937;28;10578;-79
2023/10/10 01:12:35;;;;;;;;;72.25;62.50;;;;;16.83;48.62;99727.25;5056698;28;10613;-78
2023/10/10 01:15:12;;;;;;;;;74.25;67.25;;;;;16.77;48.79;99720.41;5050523;28;10154;-80
2023/10/10 01:17:43;;;;;;;;;73.00;64.75;;;;;16.77;49.06;99729.22;5050420;28;10356;-77
2023/10/10 01:20:25;;;;;;;;;70.75;60.25;;;;;16.79;48.83;99718.56;5066911;28;10089;-78
2023/10/10 01:22:56;;;;;;;;;71.75;61.25;;;;;16.82;48.81;99721.09;5026060;28;10219;-82
2023/10/10 01:25:42;;;;;;;;;71.00;60.00;;;;;16.83;48.69;99728.09;5046792;28;9819;-81
2023/10/10 01:28:22;;;;;;;;;67.50;55.75;;;;;16.83;48.65;99724.59;5044079;28;9600;-79
2023/10/10 01:31:03;;;;;;;;;67.00;55.33;;;;;16.85;48.72;99725.38;5033050;28;9528;-79
2023/10/10 01:33:47;;;;;;;;;67.00;54.00;;;;;16.87;48.66;99727.06;5066414;28;9198;-81
2023/10/10 01:36:29;;;;;;;;;63.33;52.00;;;;;16.92;48.54;99726.84;5049892;28;9177;-81
2023/10/10 01:39:28;;;;;;;;;62.33;51.00;;;;;17.00;48.10;99727.34;5049698;28;9187;-83
2023/10/10 01:41:58;;;;;;;;;59.00;48.75;;;;;16.86;48.35;99727.13;5078003;28;8946;-79
2023/10/10 01:44:27;;;;;;;;;60.00;49.00;;;;;16.83;48.45;99732.56;5066104;28;8847;-82
2023/10/10 01:46:58;;;;;;;;;62.67;50.33;;;;;16.85;48.33;99726.25;5059519;28;8881;-79
2023/10/10 01:49:29;;;;;;;;;58.25;47.25;;;;;16.83;48.40;99719.28;5090988;28;8952;-79
2023/10/10 01:52:00;;;;;;;;;62.00;49.25;;;;;16.87;48.51;99724.41;5095681;27;9008;-80
2023/10/10 01:54:35;;;;;;;;;56.25;46.00;;;;;16.85;48.02;99720.94;5130085;27;8969;-78
2023/10/10 01:57:09;;;;;;;;;60.25;49.00;;;;;16.86;48.20;99725.31;5107466;28;8986;-79
2023/10/10 01:59:38;;;;;;;;;56.50;46.00;;;;;16.95;47.97;99724.06;5107776;28;8851;-79
2023/10/10 02:02:09;;;;;;;;;58.50;47.25;;;;;17.00;47.67;99722.03;5110562;28;8886;-81
2023/10/10 02:04:39;;;;;;;;;51.75;43.50;;;;;16.99;47.76;99729.16;5109573;28;8874;-79
2023/10/10 02:07:22;;;;;;;;;52.50;43.75;;;;;16.99;47.51;99721.19;5109654;28;8873;-81
2023/10/10 02:10:00;;;;;;;;;54.75;45.75;;;;;17.03;47.68;99724.56;5090766;28;9644;-77
2023/10/10 02:12:33;;;;;;;;;52.75;44.00;;;;;17.02;47.50;99714.88;5114823;27;8853;-83
2023/10/10 02:15:05;;;;;;;;;52.00;43.75;;;;;16.98;47.25;99710.63;5111477;27;8837;-78
2023/10/10 02:17:39;;;;;;;;;53.00;43.25;;;;;16.54;48.27;99724.06;5129757;27;8871;-79
2023/10/10 02:20:33;;;;;;;;;49.50;42.25;;;;;16.67;48.09;99721.75;5122903;27;8943;-83
2023/10/10 02:25:48;;;;;;;;;48.75;40.75;;;;;16.85;47.79;99722.72;5064932;28;8845;-78
2023/10/10 02:28:21;;;;;;;;;47.75;40.75;;;;;16.88;47.58;99709.31;5083220;27;8818;-78
2023/10/10 02:30:52;;;;;;;;;49.00;40.75;;;;;16.83;47.60;99706.00;5107914;28;8988;-78
2023/10/10 02:33:31;;;;;;;;;49.00;41.50;;;;;16.86;47.72;99705.88;5089141;28;8841;-78
2023/10/10 02:36:00;;;;;;;;;47.00;39.00;;;;;16.88;47.79;99709.31;5108007;28;8857;-80
2023/10/10 02:38:34;;;;;;;;;45.00;38.50;;;;;16.82;47.87;99709.59;5058505;28;8933;-79
2023/10/10 02:41:24;;;;;;;;;45.25;38.00;;;;;16.76;47.96;99705.44;5112434;28;8849;-80
2023/10/10 02:44:04;;;;;;;;;45.50;38.75;;;;;16.78;47.69;99696.47;5127287;27;8846;-79
2023/10/10 02:46:35;;;;;;;;;47.50;40.50;;;;;16.84;47.58;99697.13;5131940;27;8927;-80
2023/10/10 02:49:12;;;;;;;;;45.25;38.00;;;;;16.88;47.71;99693.41;5132636;27;8908;-81
2023/10/10 02:51:45;;;;;;;;;47.00;38.25;;;;;16.88;47.79;99688.09;5123672;27;8856;-78
2023/10/10 02:59:51;;;;;;;;;44.00;38.00;;;;;16.89;47.75;99701.31;5033693;28;9590;-81
2023/10/10 03:02:22;;;;;;;;;39.75;35.00;;;;;16.92;47.63;99708.25;5032796;28;8958;-78
2023/10/10 03:05:06;;;;;;;;;43.25;36.00;;;;;16.96;47.61;99704.53;5049081;28;8926;-79
2023/10/10 03:07:35;;;;;;;;;46.25;37.00;;;;;17.02;47.43;99698.94;5066370;28;8842;-78
2023/10/10 03:10:23;;;;;;;;;38.25;33.25;;;;;17.05;47.09;99697.94;5052513;28;8883;-79
2023/10/10 03:13:05;;;;;;;;;41.75;34.50;;;;;17.11;46.64;99700.31;5053758;28;8814;-78
2023/10/10 03:15:37;;;;;;;;;42.25;35.25;;;;;17.11;46.75;99702.97;5068803;28;8845;-77
2023/10/10 03:21:06;;;;;;;;;36.50;33.00;;;;;17.17;47.02;99700.03;4970276;28;8892;-79
2023/10/10 03:23:43;;;;;;;;;39.50;35.00;;;;;17.17;47.03;99708.00;4934958;28;8926;-80
2023/10/10 03:26:19;;;;;;;;;38.25;34.25;;;;;17.17;47.07;99700.03;4950884;28;9085;-78
2023/10/10 03:28:49;;;;;;;;;36.00;33.00;;;;;17.23;46.86;99704.19;4950193;28;8856;-82
2023/10/10 03:31:24;;;;;;;;;36.75;33.00;;;;;17.21;46.41;99701.59;4951825;28;8848;-80
2023/10/10 03:34:11;;;;;;;;;32.50;31.50;;;;;17.22;46.43;99707.81;4929124;28;8850;-78
2023/10/10 03:36:44;;;;;;;;;31.25;30.00;;;;;17.04;46.55;99706.84;5014958;28;9139;-82
2023/10/10 03:39:23;;;;;;;;;33.75;30.25;;;;;16.99;46.59;99707.91;5012616;28;8839;-77
2023/10/10 05:25:14;;;;;;;;;26.40;26.40;;;;;17.10;46.17;99768.53;5051121;28;8907;-78
2023/10/10 05:27:43;;;;;;;;;26.80;25.20;;;;;17.15;46.09;99777.13;5015503;28;8959;-78
2023/10/10 05:30:23;;;;;;;;;30.75;29.50;;;;;17.09;46.07;99774.75;5064047;28;8865;-78
2023/10/10 05:33:00;;;;;;;;;26.40;25.40;;;;;17.11;46.11;99780.00;5092100;28;9605;-76
2023/10/10 05:35:30;;;;;;;;;32.25;29.75;;;;;17.18;45.83;99782.31;5069225;28;8952;-78
2023/10/10 05:38:01;;;;;;;;;32.00;30.00;;;;;17.24;45.83;99775.88;5086400;28;8956;-78
2023/10/10 05:40:51;;;;;;;;;33.00;29.75;;;;;17.17;46.07;99793.00;5065732;28;8981;-78
2023/10/10 05:43:26;;;;;;;;;27.00;26.00;;;;;16.95;46.08;99795.75;5065497;28;8859;-78
2023/10/10 05:45:55;;;;;;;;;32.25;30.00;;;;;16.76;46.29;99790.38;5065677;28;8900;-75
2023/10/10 05:48:25;;;;;;;;;34.50;32.00;;;;;16.18;48.16;99796.28;5065978;28;8854;-77
2023/10/10 05:50:54;;;;;;;;;28.25;27.75;;;;;16.27;47.93;99787.09;5065524;28;8959;-76
2023/10/10 05:53:24;;;;;;;;;28.40;24.60;;;;;16.45;47.14;99798.75;5074510;28;8832;-78
2023/10/10 05:55:58;;;;;;;;;27.40;25.80;;;;;16.77;47.00;99803.56;5052601;28;8863;-76
2023/10/10 05:58:28;;;;;;;;;26.00;21.20;;;;;15.89;48.33;99806.25;5065482;28;8828;-78
2023/10/10 06:00:58;;;;;;;;;22.60;21.40;;;;;15.90;48.27;99799.16;5065106;28;8860;-76
2023/10/10 06:03:27;;;;;;;;;21.60;21.60;;;;;15.37;49.76;99806.38;5065045;28;8836;-76
2023/10/10 06:05:56;;;;;;;;;21.60;20.40;;;;;15.10;50.90;99810.03;5065692;28;8844;-76
2023/10/10 06:08:25;;;;;;;;;21.40;21.00;;;;;15.06;50.83;99817.22;5015909;28;8895;-76
2023/10/10 06:10:54;;;;;;;;;23.20;21.20;;;;;15.17;50.57;99814.19;5065268;28;9006;-76
2023/10/10 06:13:25;;;;;;;;;23.20;21.40;;;;;15.19;50.86;99830.91;5064574;28;9571;-77
2023/10/10 06:15:53;;;;;;;;;19.20;18.40;;;;;15.43;50.27;99815.88;5065182;28;8860;-73
2023/10/10 06:18:23;;;;;;;;;22.40;21.20;;;;;15.78;49.86;99827.00;5073606;28;8877;-75
2023/10/10 06:20:52;;;;;;;;;26.80;25.40;;;;;16.19;49.29;99821.84;5085383;28;8949;-77
2023/10/10 06:23:37;;;;;;;;;28.20;23.80;;;;;16.18;48.05;99823.66;5084329;28;9255;-75
2023/10/10 06:26:07;;;;;;;;;19.80;19.20;;;;;16.13;48.38;99832.72;5085567;28;8853;-80
2023/10/10 06:28:45;;;;;;;;;20.40;18.80;;;;;15.93;48.37;99836.16;5085573;28;8858;-74
2023/10/10 06:31:19;;;;;;;;;16.60;15.80;;;;;15.87;49.61;99831.06;5090006;28;8864;-79
2023/10/10 06:33:50;;;;;;;;;19.60;19.40;;;;;15.98;49.05;99836.81;5105865;28;8978;-77
2023/10/10 06:36:37;;;;;;;;;20.60;20.40;;;;;16.13;48.64;99838.00;5108178;28;8882;-75
2023/10/10 06:39:19;;;;;;;;;19.00;17.00;;;;;16.17;48.85;99834.31;5107535;28;8975;-76
2023/10/10 06:41:51;;;;;;;;;18.40;15.60;;;;;16.20;48.96;99842.16;5107879;28;8947;-79
2023/10/10 06:44:33;;;;;;;;;19.20;17.60;;;;;16.33;48.74;99843.41;5107464;28;9006;-76
2023/10/10 06:47:08;;;;;;;;;16.60;15.80;;;;;16.56;48.56;99837.19;5107756;28;8948;-77
2023/10/10 06:49:53;;;;;;;;;17.00;16.20;;;;;16.74;48.30;99843.53;5108454;28;8852;-74
2023/10/10 06:52:27;;;;;;;;;14.80;14.80;;;;;16.90;47.68;99842.88;5052025;28;8874;-80
2023/10/10 06:54:57;;;;;;;;;16.40;15.20;;;;;16.72;47.81;99845.41;5097444;28;8850;-76
2023/10/10 06:57:40;;;;;;;;;17.80;17.40;;;;;16.57;48.89;99846.03;5105948;28;8855;-76
2023/10/10 07:00:21;;;;;;;;;15.40;15.20;;;;;17.08;47.94;99846.53;5110039;28;8912;-76
2023/10/10 07:02:53;;;;;;;;;15.80;15.80;;;;;17.31;47.53;99859.72;5054026;28;8861;-78
2023/10/10 07:05:26;;;;;;;;;18.40;16.20;;;;;17.48;46.96;99858.97;5049146;28;8855;-81
2023/10/10 07:07:58;;;;;;;;;17.40;17.00;;;;;17.29;47.50;99864.25;5107662;28;8856;-78
2023/10/10 07:10:35;;;;;;;;;15.40;14.40;;;;;17.63;47.15;99865.41;5108227;28;8936;-77
2023/10/10 07:13:10;;;;;;;;;12.20;10.80;;;;;17.83;46.70;99861.81;5085424;28;8842;-78
2023/10/10 07:15:41;;;;;;;;;18.40;14.40;;;;;17.97;46.24;99864.69;5040103;28;8888;-79
2023/10/10 07:18:14;;;;;;;;;10.60;10.60;;;;;17.91;46.29;99865.00;5102969;28;8997;-79
2023/10/10 07:23:53;;;;;;;;;12.40;10.80;;;;;17.97;46.18;99885.13;5110724;28;8941;-81
2023/10/10 07:26:24;;;;;;;;;13.60;12.00;;;;;17.99;45.85;99872.63;5110211;28;8836;-78
2023/10/10 07:28:54;;;;;;;;;13.40;11.40;;;;;18.09;45.62;99879.25;5122249;27;9732;-77
2023/10/10 07:31:25;;;;;;;;;13.60;13.40;;;;;18.19;45.67;99877.00;5132446;27;8869;-76
2023/10/10 07:33:55;;;;;;;;;11.60;9.00;;;;;18.27;45.82;99879.31;5086163;28;8845;-79
2023/10/10 07:36:27;;;;;;;;;12.40;12.20;;;;;17.92;46.36;99881.81;5130470;27;8831;-77
2023/10/10 07:39:32;;;;;;;;;10.40;9.40;;;;;17.33;47.70;99879.13;5095369;27;8859;-77
2023/10/10 07:41:57;;;;;;;;;10.80;10.00;;;;;17.44;47.58;99878.66;5101965;27;9436;-78
2023/10/10 07:44:30;;;;;;;;;11.40;10.20;;;;;17.23;48.16;99879.53;5111359;28;8887;-76
2023/10/10 07:47:25;;;;;;;;;5.60;3.20;;;;;17.06;48.68;99878.50;5112424;28;8865;-77
2023/10/10 07:49:55;;;;;;;;;12.40;11.00;;;;;16.92;49.37;99889.69;5111956;27;8873;-77
2023/10/10 07:52:24;;;;;;;;;12.40;10.60;;;;;16.28;51.45;99890.47;5119084;27;8868;-76
2023/10/10 07:54:53;;;;;;;;;14.40;12.20;;;;;16.48;50.49;99880.91;5130568;27;8854;-78
2023/10/10 07:57:28;;;;;;;;;14.60;11.80;;;;;16.85;49.81;99893.50;5112375;27;8853;-76
2023/10/10 07:59:58;;;;;;;;;12.20;11.00;;;;;16.80;49.75;99888.41;5109518;27;9029;-80
2023/10/10 08:02:32;;;;;;;;;14.80;13.20;;;;;16.67;50.21;99891.63;5124790;27;8964;-75
2023/10/10 08:05:09;;;;;;;;;16.60;14.20;;;;;16.13;52.01;99893.72;5110679;28;8853;-75
2023/10/10 08:07:39;;;;;;;;;13.80;12.40;;;;;15.82;53.22;99895.72;5110659;27;8849;-75
2023/10/10 08:10:29;;;;;;;;;14.40;11.00;;;;;15.39;54.76;99893.75;5110760;28;8938;-75
2023/10/10 08:13:00;;;;;;;;;17.40;17.20;;;;;15.65;54.18;99898.16;5110675;28;8875;-74
2023/10/10 08:15:30;;;;;;;;;16.80;15.00;;;;;15.86;53.75;99883.22;5110944;28;8861;-76
2023/10/10 08:18:00;;;;;;;;;15.60;14.60;;;;;15.75;54.27;99893.38;5111331;27;8869;-77
2023/10/10 08:21:07;;;;;;;;;14.20;14.20;;;;;15.49;55.02;99903.13;5090838;27;8858;-76
2023/10/10 08:23:25;;;;;;;;;15.00;12.80;;;;;15.29;55.77;99906.44;5109774;27;8869;-75
2023/10/10 08:25:54;;;;;;;;;11.00;11.00;;;;;15.10;56.42;99903.56;5110654;28;8950;-76
2023/10/10 08:28:23;;;;;;;;;14.20;13.00;;;;;15.53;55.26;99906.50;5109992;28;8856;-76
2023/10/10 08:30:53;;;;;;;;;12.20;12.20;;;;;15.34;56.03;99909.81;5110460;28;8853;-73
2023/10/10 08:33:26;;;;;;;;;11.20;10.40;;;;;15.42;55.72;99893.66;5126742;27;8988;-75
2023/10/10 08:35:55;;;;;;;;;10.00;8.80;;;;;16.05;53.88;99895.81;5109849;28;8845;-77
2023/10/10 08:38:24;;;;;;;;;9.60;9.40;;;;;16.32;53.00;99902.69;5109614;27;8829;-75
2023/10/10 08:40:57;;;;;;;;;12.80;10.00;;;;;16.67;52.20;99897.78;5110074;27;8853;-74
2023/10/10 08:43:29;;;;;;;;;13.00;10.00;;;;;16.48;52.28;99902.13;5110867;27;8833;-75
2023/10/10 08:46:03;;;;;;;;;12.20;10.40;;;;;16.65;52.16;99902.31;5110384;28;8880;-75
2023/10/10 08:48:35;;;;;;;;;12.80;11.20;;;;;16.57;52.49;99899.97;5080794;27;8853;-77
2023/10/10 08:51:06;;;;;;;;;9.80;9.00;;;;;16.46;52.75;99903.97;5117171;27;8956;-74
2023/10/10 08:53:36;;;;;;;;;9.80;9.80;;;;;15.62;54.81;99914.16;5110196;28;8949;-74
2023/10/10 08:56:06;;;;;;;;;10.00;9.20;;;;;15.76;54.85;99911.88;5113419;27;8846;-77
2023/10/10 08:58:36;;;;;;;;;10.80;9.20;;;;;16.28;53.88;99910.81;5112323;27;8849;-74
2023/10/10 09:01:08;;;;;;;;;10.40;9.60;;;;;16.75;52.33;99905.44;5109861;28;8910;-74
2023/10/10 09:03:45;;;;;;;;;8.80;7.60;;;;;17.13;50.80;99905.63;5145239;27;8851;-76
2023/10/10 09:06:19;;;;;;;;;7.80;6.40;;;;;17.51;50.08;99913.78;5116297;27;8945;-76
2023/10/10 09:08:50;;;;;;;;;9.60;8.40;;;;;17.75;49.15;99912.69;5109504;28;8876;-75
2023/10/10 09:11:20;;;;;;;;;8.00;8.00;;;;;17.99;48.88;99917.84;5109523;27;8853;-75
2023/10/10 09:13:53;;;;;;;;;7.80;7.80;;;;;18.14;48.06;99916.31;5109559;28;8849;-74
2023/10/10 09:16:41;;;;;;;;;7.80;7.20;;;;;17.53;49.26;99919.88;5109562;27;8860;-75
2023/10/10 09:19:14;;;;;;;;;7.00;6.80;;;;;16.65;51.96;99931.50;5109908;28;8887;-74
2023/10/10 09:21:51;;;;;;;;;8.00;7.60;;;;;16.02;54.48;99921.50;5109022;28;8875;-74
2023/10/10 09:24:29;;;;;;;;;7.00;7.00;;;;;16.10;54.26;99929.19;5100958;28;8873;-74
2023/10/10 09:27:07;;;;;;;;;10.00;7.20;;;;;16.05;54.44;99922.31;5061012;28;8855;-77
2023/10/10 09:29:42;;;;;;;;;8.40;7.80;;;;;16.00;54.96;99919.81;5108387;28;9028;-76
2023/10/10 09:32:14;;;;;;;;;7.40;7.40;;;;;16.15;54.21;99929.88;5109282;28;8969;-75
2023/10/10 09:34:48;;;;;;;;;8.00;8.00;;;;;16.45;53.82;99921.66;5109188;28;8851;-75
2023/10/10 09:37:29;;;;;;;;;8.60;8.20;;;;;17.02;52.08;99927.31;5108774;28;8889;-74
2023/10/10 09:40:00;;;;;;;;;8.20;6.40;;;;;17.51;50.79;99917.31;5109010;28;8836;-79
2023/10/10 09:42:44;;;;;;;;;9.20;9.00;;;;;17.91;50.08;99912.88;5089881;28;8848;-76
2023/10/10 09:45:27;;;;;;;;;10.00;9.40;;;;;18.03;49.16;99927.44;5108471;28;8952;-75
2023/10/10 09:48:05;;;;;;;;;9.00;8.00;;;;;18.26;48.74;99923.69;5108830;28;9608;-76
2023/10/10 09:50:37;;;;;;;;;7.80;5.80;;;;;18.65;47.46;99927.22;5107332;28;8890;-76
2023/10/10 09:53:19;;;;;;;;;10.80;10.20;;;;;18.95;46.81;99919.53;5108159;28;9601;-75
2023/10/10 09:55:53;;;;;;;;;7.00;7.00;;;;;19.21;46.63;99920.00;5041885;28;8851;-79
2023/10/10 09:58:25;;;;;;;;;10.00;9.00;;;;;19.16;46.21;99916.72;5109053;28;8885;-82
2023/10/10 10:01:04;;;;;;;;;13.60;11.20;;;;;19.17;46.15;99919.31;5095547;28;8840;-80
2023/10/10 10:03:40;;;;;;;;;10.40;9.40;;;;;18.44;47.95;99921.09;5091908;28;8835;-78
2023/10/10 10:06:37;;;;;;;;;10.60;10.60;;;;;18.37;48.80;99919.69;5095291;28;9051;-78
2023/10/10 10:09:45;;;;;;;;;8.80;7.80;;;;;19.07;47.66;99918.91;5109300;28;8988;-82
2023/10/10 10:12:33;;;;;;;;;8.00;8.00;;;;;19.23;46.63;99908.31;5109078;28;8868;-78
2023/10/10 10:15:15;;;;;;;;;7.60;6.20;;;;;19.65;45.72;99914.19;5109116;28;8986;-80
2023/10/10 10:17:56;;;;;;;;;7.00;6.00;;;;;19.64;45.06;99918.69;5108624;28;8883;-81
2023/10/10 10:20:33;;;;;;;;;8.40;6.00;;;;;19.81;44.78;99909.78;5091027;28;8889;-77
2023/10/10 10:23:06;;;;;;;;;4.00;4.00;;;;;20.06;44.01;99913.78;5117191;27;8862;-82
2023/10/10 10:25:36;;;;;;;;;4.60;4.20;;;;;20.29;43.64;99915.22;5129181;27;8942;-81
2023/10/10 10:28:14;;;;;;;;;4.80;4.40;;;;;20.23;43.46;99908.41;5118570;28;8937;-83
2023/10/10 10:30:51;;;;;;;;;5.00;5.00;;;;;20.49;42.96;99914.09;5108515;28;8833;-82
2023/10/10 10:33:22;;;;;;;;;7.60;7.60;;;;;20.73;42.34;99908.28;5109074;28;8852;-80
2023/10/10 10:36:14;;;;;;;;;4.40;4.00;;;;;21.00;41.39;99900.53;5108283;28;8871;-80
2023/10/10 10:41:47;;;;;;;;;7.60;5.20;;;;;20.55;41.26;99904.88;5123447;27;8842;-79
2023/10/10 10:44:29;;;;;;;;;8.20;6.80;;;;;19.76;42.79;99914.47;5108020;28;8864;-79
2023/10/10 10:46:58;;;;;;;;;8.00;7.00;;;;;19.86;43.09;99906.88;5121717;28;8845;-82
2023/10/10 10:49:30;;;;;;;;;6.80;6.20;;;;;20.20;42.97;99911.22;5082981;27;8889;-77
2023/10/10 10:52:17;;;;;;;;;5.00;5.00;;;;;20.35;42.77;99908.66;5110355;28;8849;-78
2023/10/10 10:55:09;;;;;;;;;5.20;5.20;;;;;19.91;43.80;99904.81;5108121;28;8857;-84
2023/10/10 10:57:40;;;;;;;;;6.20;6.20;;;;;20.36;42.81;99905.06;5080960;28;8887;-81
2023/10/10 11:00:29;;;;;;;;;5.40;5.00;;;;;20.13;43.39;99893.81;5091000;27;8903;-79
2023/10/10 11:02:59;;;;;;;;;4.00;4.00;;;;;20.36;42.25;99899.72;5113263;28;8857;-80
2023/10/10 11:05:32;;;;;;;;;3.60;3.60;;;;;20.74;41.84;99894.00;5127410;27;8835;-78
2023/10/10 11:08:11;;;;;;;;;7.60;5.80;;;;;21.03;41.10;99892.31;5119366;27;8877;-77
2023/10/10 11:10:46;;;;;;;;;4.20;4.20;;;;;21.30;40.44;99892.50;5132350;27;8849;-81
2023/10/10 11:13:15;;;;;;;;;8.20;6.20;;;;;21.48;40.12;99885.16;5096746;28;8880;-77
2023/10/10 11:15:45;;;;;;;;;6.60;5.40;;;;;21.53;39.95;99887.56;5112084;27;8872;-78
2023/10/10 11:18:23;;;;;;;;;6.80;6.00;;;;;21.73;39.72;99884.56;5111451;27;9043;-78
2023/10/10 11:21:08;;;;;;;;;7.20;7.20;;;;;21.91;38.60;99887.88;5112014;28;8825;-81
2023/10/10 11:23:42;;;;;;;;;6.00;4.00;;;;;21.81;38.64;99906.34;5126868;27;8901;-81
2023/10/10 11:26:17;;;;;;;;;6.40;6.00;;;;;22.10;38.04;99897.44;5111783;27;8841;-79
2023/10/10 11:28:48;;;;;;;;;7.20;4.60;;;;;22.14;38.38;99894.44;5120867;27;8875;-79
2023/10/10 11:31:23;;;;;;;;;5.20;4.00;;;;;22.18;38.28;99895.09;5117239;27;8857;-79
2023/10/10 11:34:10;;;;;;;;;6.00;6.00;;;;;22.46;37.84;99890.69;5079769;28;8904;-78
2023/10/10 11:36:39;;;;;;;;;6.40;5.80;;;;;22.68;37.80;99885.63;5110021;28;8857;-80
2023/10/10 11:39:31;;;;;;;;;6.00;6.00;;;;;23.18;37.24;99880.53;5111884;27;8842;-81
2023/10/10 11:42:05;;;;;;;;;4.80;4.80;;;;;23.26;36.51;99880.88;5111676;28;8837;-80
2023/10/10 11:44:34;;;;;;;;;6.80;6.40;;;;;22.98;36.64;99879.22;5111972;28;8883;-82
2023/10/10 11:47:07;;;;;;;;;6.40;5.80;;;;;23.32;35.93;99880.44;5083920;28;9032;-79
2023/10/10 11:49:41;;;;;;;;;5.20;5.20;;;;;23.64;35.49;99876.50;5090848;28;8815;-77
2023/10/10 11:52:19;;;;;;;;;7.60;6.80;;;;;23.70;35.01;99882.31;5075755;28;8847;-81
2023/10/10 11:54:47;;;;;;;;;7.40;7.40;;;;;23.87;34.99;99872.22;5089599;28;8852;-83
2023/10/10 11:57:18;;;;;;;;;7.40;5.40;;;;;24.10;34.40;99878.59;5088009;28;8877;-83
2023/10/10 11:59:47;;;;;;;;;6.80;6.60;;;;;24.11;34.27;99874.94;5089266;28;8948;-83
2023/10/10 12:02:18;;;;;;;;;8.40;7.20;;;;;24.05;34.02;99868.16;5089081;28;8827;-78
2023/10/10 12:04:47;;;;;;;;;6.80;5.60;;;;;24.16;34.10;99865.59;5039833;28;8835;-81
2023/10/10 12:07:18;;;;;;;;;8.60;7.60;;;;;24.33;34.58;99863.50;5051370;28;9634;-79
2023/10/10 12:09:51;;;;;;;;;8.20;6.80;;;;;24.23;34.32;99870.53;5068169;28;8895;-80
2023/10/10 12:12:24;;;;;;;;;5.80;5.20;;;;;24.09;34.85;99867.00;5067720;28;8874;-81
2023/10/10 12:14:53;;;;;;;;;8.60;7.40;;;;;23.99;34.75;99871.31;5069441;28;8850;-78
2023/10/10 12:17:22;;;;;;;;;10.00;9.40;;;;;24.02;34.47;99865.72;5075951;28;8858;-80
2023/10/10 12:19:51;;;;;;;;;9.60;9.40;;;;;23.32;35.73;99861.69;5111046;28;8849;-82
2023/10/10 12:22:22;;;;;;;;;9.40;8.60;;;;;23.05;36.12;99863.56;5125539;27;9112;-79
2023/10/10 12:24:51;;;;;;;;;9.20;7.80;;;;;22.80;36.17;99865.19;5112785;27;8995;-79
2023/10/10 12:27:29;;;;;;;;;8.20;8.20;;;;;22.65;36.51;99860.88;5111395;27;8903;-77
2023/10/10 12:29:58;;;;;;;;;8.80;8.60;;;;;22.46;37.00;99856.72;5111449;28;8869;-80
2023/10/10 12:32:29;;;;;;;;;10.80;9.60;;;;;22.57;36.98;99858.69;5130744;27;8858;-82
2023/10/10 12:34:59;;;;;;;;;9.60;8.60;;;;;22.55;37.06;99861.47;5134352;27;8954;-83
2023/10/10 12:37:33;;;;;;;;;6.60;6.60;;;;;22.69;36.86;99867.72;5133546;27;8961;-82
2023/10/10 12:40:08;;;;;;;;;8.80;8.80;;;;;22.76;36.55;99861.84;5081510;27;8858;-80
2023/10/10 12:42:40;;;;;;;;;8.60;7.80;;;;;22.61;37.28;99857.53;5080314;27;8911;-82
2023/10/10 12:45:09;;;;;;;;;7.20;7.00;;;;;22.54;37.14;99857.09;5132106;27;8870;-81
2023/10/10 12:47:38;;;;;;;;;8.20;7.60;;;;;22.67;37.21;99858.94;5112922;27;8867;-80
2023/10/10 12:50:13;;;;;;;;;9.00;8.20;;;;;22.70;37.10;99859.59;5075904;28;8876;-81
2023/10/10 12:52:46;;;;;;;;;9.00;8.00;;;;;22.64;37.19;99860.00;5110509;28;8829;-78
2023/10/10 12:55:17;;;;;;;;;7.60;7.60;;;;;22.49;37.50;99861.88;5110525;27;8856;-80
2023/10/10 12:57:54;;;;;;;;;8.20;8.20;;;;;22.52;37.80;99856.31;5090479;28;8945;-78
2023/10/10 13:00:33;;;;;;;;;10.40;9.60;;;;;22.56;37.78;99857.84;5111355;28;8876;-80
2023/10/10 13:03:06;;;;;;;;;10.60;9.60;;;;;22.29;37.99;99857.81;5111275;28;8875;-79
2023/10/10 13:05:36;;;;;;;;;8.40;8.00;;;;;22.34;38.23;99868.25;5110613;28;8960;-80
2023/10/10 13:08:06;;;;;;;;;8.40;8.00;;;;;22.28;38.21;99853.44;5111954;27;8879;-79
2023/10/10 13:10:37;;;;;;;;;10.20;9.60;;;;;22.12;38.49;99852.66;5121483;27;8976;-84
2023/10/10 13:13:08;;;;;;;;;8.80;8.80;;;;;21.99;38.52;99857.94;5095732;28;8818;-81
2023/10/10 13:15:52;;;;;;;;;13.60;13.40;;;;;21.80;39.38;99860.94;5097294;28;8893;-80
2023/10/10 13:18:22;;;;;;;;;12.40;11.40;;;;;21.89;39.29;99868.38;5099397;28;8850;-80
2023/10/10 13:20:53;;;;;;;;;9.80;9.80;;;;;21.88;39.16;99863.13;5053118;28;8960;-80
2023/10/10 13:23:22;;;;;;;;;13.00;12.40;;;;;21.94;39.27;99860.09;5073545;28;9017;-79
2023/10/10 13:25:54;;;;;;;;;14.80;12.20;;;;;21.96;39.12;99860.84;5091327;28;8981;-79
2023/10/10 13:28:24;;;;;;;;;12.60;11.60;;;;;21.99;39.13;99853.47;5106933;28;8835;-79
2023/10/10 13:30:54;;;;;;;;;12.40;11.80;;;;;22.00;38.83;99848.97;5091782;28;8866;-79
2023/10/10 13:33:23;;;;;;;;;13.80;12.60;;;;;21.90;39.32;99843.34;5075344;28;8842;-81
2023/10/10 13:35:52;;;;;;;;;11.20;9.40;;;;;21.85;39.13;99850.81;5081440;28;8864;-82
2023/10/10 13:38:25;;;;;;;;;11.20;11.20;;;;;21.70;39.20;99847.28;5096325;28;8832;-82
2023/10/10 13:40:54;;;;;;;;;13.60;12.20;;;;;21.52;39.38;99859.97;5091645;28;8872;-80
2023/10/10 13:43:26;;;;;;;;;10.80;10.80;;;;;21.52;39.51;99851.94;5098237;27;8854;-81
2023/10/10 13:45:57;;;;;;;;;14.40;14.40;;;;;21.45;39.78;99847.91;5114377;27;8849;-82
2023/10/10 13:48:27;;;;;;;;;16.60;13.80;;;;;21.55;39.70;99850.88;5086463;27;8993;-76
2023/10/10 13:50:59;;;;;;;;;19.00;18.60;;;;;21.52;39.94;99856.41;5111238;27;8865;-74
2023/10/10 13:53:29;;;;;;;;;13.80;13.80;;;;;21.42;39.73;99856.13;5112109;27;8915;-80
2023/10/10 13:56:00;;;;;;;;;14.80;14.80;;;;;21.26;40.15;99843.69;5105112;28;8961;-76
2023/10/10 13:58:31;;;;;;;;;20.40;18.00;;;;;21.12;40.64;99854.34;5108849;27;9315;-84
2023/10/10 14:01:14;;;;;;;;;21.00;19.40;;;;;21.07;40.46;99856.47;5114746;27;8838;-85
2023/10/10 14:03:48;;;;;;;;;18.20;18.20;;;;;21.13;40.18;99863.25;5126060;27;8830;-85